Time;durP1;ratioP1;P1;durP2;ratioP2;P2;SDS_P1;SDS_P2;PMS_P1;PMS_P2;Temp;Humidity;BMP_temperature;BMP_pressure;BME280_temperature;BME280_humidity;BME280_pressure;Samples;Min_cycle;Max_cycle;Signal;HPM_P1;HPM_P2
2022/10/09 00:01:20;;;;;;;0.00;0.00;;;;;;;14.75;55.60;101103.59;7368215;19;20010;-63
2022/10/09 00:03:50;;;;;;;0.00;0.00;;;;;;;14.68;55.86;101108.19;7260838;19;2004261;-62
2022/10/09 00:06:19;;;;;;;0.00;0.00;;;;;;;14.65;56.55;101103.06;7365504;19;20346;-62
2022/10/09 00:08:45;;;;;;;0.00;0.00;;;;;;;14.62;57.10;101092.63;7365132;19;20014;-63
2022/10/09 00:11:17;;;;;;;0.00;0.00;;;;;;;14.63;57.38;101094.34;7364016;19;20764;-62
2022/10/09 00:13:43;;;;;;;0.00;0.00;;;;;;;14.48;57.76;101068.59;7362050;19;21977;-62
2022/10/09 00:16:11;;;;;;;0.00;0.00;;;;;;;14.63;57.41;101089.09;7365497;19;22196;-62
2022/10/09 00:18:37;;;;;;;0.00;0.00;;;;;;;14.51;56.81;101057.97;7365164;19;20015;-62
2022/10/09 00:21:04;;;;;;;0.00;0.00;;;;;;;14.66;57.33;101082.91;7363760;19;20140;-62
2022/10/09 00:23:30;;;;;;;0.00;0.00;;;;;;;14.62;57.26;101070.75;7361624;19;20038;-63
2022/10/09 00:25:58;;;;;;;0.00;0.00;;;;;;;14.69;56.56;101077.50;7364219;19;20421;-62
2022/10/09 00:28:25;;;;;;;0.00;0.00;;;;;;;14.69;56.28;101067.84;7363615;19;20010;-62
2022/10/09 00:30:52;;;;;;;0.00;0.00;;;;;;;14.70;56.85;101069.59;7365158;19;20017;-62
2022/10/09 00:33:17;;;;;;;0.00;0.00;;;;;;;14.70;56.60;101068.72;7362923;19;20867;-62
2022/10/09 00:35:43;;;;;;;0.00;0.00;;;;;;;14.59;56.73;101041.94;7363834;19;20019;-62
2022/10/09 00:38:09;;;;;;;0.00;0.00;;;;;;;14.71;57.82;101045.03;7360986;19;20022;-62
2022/10/09 00:40:36;;;;;;;0.00;0.00;;;;;;;14.68;57.47;101039.84;7363897;19;20010;-63
2022/10/09 00:43:02;;;;;;;0.00;0.00;;;;;;;14.70;57.73;101040.69;7362510;19;20031;-63
2022/10/09 00:45:30;;;;;;;0.03;0.03;;;;;;;14.68;58.42;101045.13;7364191;19;20023;-62
2022/10/09 00:47:59;;;;;;;;;;;;;;;14.70;56.73;101038.06;7362846;19;20007;-62
2022/10/09 00:50:39;;;;;;;0.00;0.00;;;;;;;14.67;57.28;101038.16;7361073;19;19929;-63
2022/10/09 00:53:05;;;;;;;0.00;0.00;;;;;;;14.61;58.17;101033.09;7363069;19;20034;-62
2022/10/09 00:55:33;;;;;;;0.00;0.00;;;;;;;14.52;58.83;101022.91;7362114;19;21070;-62
2022/10/09 00:58:00;;;;;;;0.00;0.00;;;;;;;14.48;58.41;101013.41;7361776;19;20706;-62
2022/10/09 01:00:26;;;;;;;0.00;0.00;;;;;;;14.57;58.71;101028.00;7362652;19;20014;-62
2022/10/09 01:02:52;;;;;;;0.10;0.10;;;;;;;14.56;58.54;101027.16;7221574;19;2808440;-62
2022/10/09 01:05:22;;;;;;;0.00;0.00;;;;;;;14.57;58.79;101035.88;7363945;19;20094;-63
2022/10/09 01:08:00;;;;;;;0.00;0.00;;;;;;;14.59;58.70;101026.16;7365431;19;20010;-62
2022/10/09 01:10:33;;;;;;;0.00;0.00;;;;;;;14.53;59.07;101017.59;7364150;19;20033;-63
2022/10/09 01:13:34;;;;;;;0.00;0.00;;;;;;;14.65;57.53;101023.31;7365378;19;20007;-63
2022/10/09 01:16:06;;;;;;;0.00;0.00;;;;;;;14.60;58.44;101005.13;7264827;19;2004375;-62
2022/10/09 01:18:50;;;;;;;0.00;0.00;;;;;;;14.61;58.39;100995.47;7363192;19;20767;-63
2022/10/09 01:21:44;;;;;;;0.00;0.00;;;;;;;14.66;57.60;100999.63;7367416;19;20020;-63
2022/10/09 01:24:37;;;;;;;0.00;0.00;;;;;;;14.53;57.26;100977.31;7259092;19;2004701;-63
2022/10/09 01:27:25;;;;;;;0.00;0.00;;;;;;;14.50;57.59;100975.66;7260121;19;2004327;-62
2022/10/09 01:29:58;;;;;;;0.00;0.00;;;;;;;14.49;58.60;100975.69;7362223;19;20010;-63
2022/10/09 01:32:29;;;;;;;0.00;0.00;;;;;;;14.49;58.49;100978.31;7365576;19;20002;-62
2022/10/09 01:34:56;;;;;;;0.10;0.10;;;;;;;14.31;59.09;100956.16;7364504;19;20015;-63
2022/10/09 01:37:23;;;;;;;0.00;0.00;;;;;;;14.46;58.96;100965.28;7364873;19;20026;-62
2022/10/09 01:39:50;;;;;;;0.00;0.00;;;;;;;14.43;59.20;100957.47;7361406;19;20017;-62
2022/10/09 01:42:18;;;;;;;0.00;0.00;;;;;;;14.44;59.38;100956.56;7361953;19;20014;-62
2022/10/09 01:44:43;;;;;;;0.00;0.00;;;;;;;14.45;59.25;100958.31;7363485;19;20029;-62
2022/10/09 01:47:16;;;;;;;0.00;0.00;;;;;;;14.44;58.99;100940.81;7367124;19;20022;-62
2022/10/09 01:50:00;;;;;;;0.05;0.05;;;;;;;14.50;58.16;100940.66;7360825;19;20021;-62
2022/10/09 01:52:28;;;;;;;0.08;0.08;;;;;;;14.49;59.60;100933.66;7363164;19;20449;-62
2022/10/09 01:55:06;;;;;;;0.00;0.00;;;;;;;14.53;58.62;100930.88;7365078;19;20853;-62
2022/10/09 01:57:40;;;;;;;0.00;0.00;;;;;;;14.54;59.32;100922.06;7360320;19;20015;-62
2022/10/09 02:00:09;;;;;;;0.00;0.00;;;;;;;14.53;59.21;100908.97;7354755;19;20126;-63
2022/10/09 02:02:35;;;;;;;0.00;0.00;;;;;;;14.55;59.43;100915.06;7358632;19;20036;-62
2022/10/09 02:05:01;;;;;;;0.00;0.00;;;;;;;14.55;58.83;100901.91;7360965;19;20022;-62
2022/10/09 02:07:30;;;;;;;0.10;0.10;;;;;;;14.62;59.02;100903.41;7362149;19;20006;-62
2022/10/09 02:09:56;;;;;;;0.10;0.10;;;;;;;14.50;59.06;100878.44;7359375;19;20001;-62
2022/10/09 02:12:25;;;;;;;0.00;0.00;;;;;;;14.56;59.35;100882.59;7361210;19;20464;-62
2022/10/09 02:14:51;;;;;;;0.10;0.10;;;;;;;14.49;58.52;100867.97;7358791;19;20763;-63
2022/10/09 02:17:22;;;;;;;0.00;0.00;;;;;;;14.68;58.67;100884.78;7364251;19;20007;-62
2022/10/09 02:19:55;;;;;;;0.00;0.00;;;;;;;14.69;57.99;100873.34;7358934;19;21081;-62
2022/10/09 02:22:28;;;;;;;0.00;0.00;;;;;;;14.70;58.10;100877.72;7361894;19;20007;-62
2022/10/09 02:24:55;;;;;;;0.00;0.00;;;;;;;14.58;57.95;100851.00;7358508;19;20050;-62
2022/10/09 02:27:21;;;;;;;;;;;;;;;14.70;57.59;100864.56;7362883;19;20015;-63
2022/10/09 02:29:48;;;;;;;0.00;0.00;;;;;;;14.64;57.85;100862.13;7362352;19;20242;-62
2022/10/09 02:32:13;;;;;;;0.00;0.00;;;;;;;14.68;57.88;100863.75;7357910;19;20007;-62
2022/10/09 02:34:39;;;;;;;0.00;0.00;;;;;;;14.64;57.97;100853.41;7362469;19;20018;-63
2022/10/09 02:37:05;;;;;;;0.00;0.00;;;;;;;14.66;57.46;100862.97;7358887;19;20715;-62
2022/10/09 02:39:31;;;;;;;0.08;0.08;;;;;;;14.65;57.55;100853.38;7359800;19;20820;-62
2022/10/09 02:41:56;;;;;;;0.00;0.00;;;;;;;14.67;57.92;100851.53;7359208;19;20006;-62
2022/10/09 02:44:22;;;;;;;0.00;0.00;;;;;;;14.67;58.43;100851.53;7360664;19;20078;-62
2022/10/09 02:46:47;;;;;;;0.10;0.10;;;;;;;14.69;57.95;100846.19;7359053;19;20002;-62
2022/10/09 02:49:13;;;;;;;0.00;0.00;;;;;;;14.56;58.16;100806.41;7362523;19;20003;-62
2022/10/09 02:51:38;;;;;;;0.00;0.00;;;;;;;14.72;57.82;100831.19;7357740;19;20094;-62
2022/10/09 02:54:05;;;;;;;0.00;0.00;;;;;;;14.52;58.03;100786.41;7359093;19;20082;-62
2022/10/09 02:56:31;;;;;;;0.00;0.00;;;;;;;14.60;58.33;100805.38;7361297;19;20015;-63
2022/10/09 02:58:56;;;;;;;0.00;0.00;;;;;;;14.76;58.25;100827.53;7350244;19;20022;-62
2022/10/09 03:01:22;;;;;;;0.00;0.00;;;;;;;14.65;58.39;100798.16;7362486;19;20078;-62
2022/10/09 03:03:48;;;;;;;0.00;0.00;;;;;;;14.79;58.83;100821.28;7350503;19;20014;-63
2022/10/09 03:06:17;;;;;;;0.00;0.00;;;;;;;14.83;58.10;100811.50;7360513;19;20014;-62
2022/10/09 03:08:45;;;;;;;0.00;0.00;;;;;;;14.84;58.14;100810.59;7361353;19;20014;-63
2022/10/09 03:11:12;;;;;;;0.00;0.00;;;;;;;14.73;58.60;100790.84;7355652;19;20518;-63
2022/10/09 03:13:38;;;;;;;0.00;0.00;;;;;;;14.83;58.28;100801.84;7367250;19;20627;-62
2022/10/09 03:16:05;;;;;;;0.00;0.00;;;;;;;14.76;58.25;100789.88;7368064;19;20006;-62
2022/10/09 03:18:31;;;;;;;0.00;0.00;;;;;;;14.85;58.45;100796.53;7364238;19;20017;-63
2022/10/09 03:20:56;;;;;;;0.05;0.05;;;;;;;14.84;58.90;100789.56;7362639;19;20082;-63
2022/10/09 03:23:22;;;;;;;0.00;0.00;;;;;;;14.78;58.58;100778.38;7362596;19;20446;-63
2022/10/09 03:25:58;;;;;;;0.10;0.10;;;;;;;14.89;58.40;100787.59;7359570;19;20006;-62
2022/10/09 03:28:24;;;;;;;0.00;0.00;;;;;;;14.87;58.54;100771.91;7363140;19;20029;-63
2022/10/09 03:30:49;;;;;;;0.00;0.00;;;;;;;14.88;58.96;100767.50;7362068;19;20397;-62
2022/10/09 03:33:15;;;;;;;0.00;0.00;;;;;;;14.88;58.60;100762.22;7364030;19;20014;-62
2022/10/09 03:35:40;;;;;;;0.00;0.00;;;;;;;14.84;58.18;100752.75;7368555;19;20014;-63
2022/10/09 03:38:06;;;;;;;0.00;0.00;;;;;;;14.91;58.37;100762.97;7367319;19;20491;-62
2022/10/09 03:40:31;;;;;;;0.00;0.00;;;;;;;14.90;58.68;100755.13;7368272;19;20043;-62
2022/10/09 03:42:57;;;;;;;0.00;0.00;;;;;;;14.81;58.42;100734.50;7367387;19;20010;-62
2022/10/09 03:45:22;;;;;;;0.00;0.00;;;;;;;14.93;58.60;100755.03;7365858;19;20010;-62
2022/10/09 03:47:48;;;;;;;0.00;0.00;;;;;;;14.91;58.74;100751.63;7367486;19;20022;-63
2022/10/09 03:50:13;;;;;;;0.00;0.00;;;;;;;14.93;59.25;100749.75;7367926;19;20041;-62
2022/10/09 03:52:39;;;;;;;0.00;0.00;;;;;;;14.79;59.51;100731.91;7365962;19;20020;-63
2022/10/09 03:55:06;;;;;;;0.00;0.00;;;;;;;14.74;59.46;100732.06;7365537;19;20564;-62
2022/10/09 03:57:31;;;;;;;0.00;0.00;;;;;;;14.85;59.89;100736.94;7367305;19;20110;-62
2022/10/09 03:59:56;;;;;;;0.10;0.10;;;;;;;14.86;60.23;100748.31;7368439;19;20512;-63
2022/10/09 04:02:22;;;;;;;0.03;0.03;;;;;;;14.75;60.34;100731.19;7366374;19;20010;-62
2022/10/09 04:04:47;;;;;;;0.00;0.00;;;;;;;14.84;60.75;100750.97;7366494;19;20018;-62
2022/10/09 04:07:13;;;;;;;0.10;0.10;;;;;;;14.87;62.14;100744.75;7363799;19;19998;-62
2022/10/09 04:09:38;;;;;;;0.00;0.00;;;;;;;14.72;62.08;100702.38;7369274;19;20460;-62
2022/10/09 04:12:03;;;;;;;0.00;0.00;;;;;;;14.79;62.71;100711.72;7364166;19;20003;-62
2022/10/09 04:14:29;;;;;;;0.00;0.00;;;;;;;14.74;62.26;100708.41;7367403;19;20053;-63
2022/10/09 04:16:54;;;;;;;0.00;0.00;;;;;;;14.53;62.61;100683.84;7365885;19;20002;-63
2022/10/09 04:19:20;;;;;;;0.00;0.00;;;;;;;14.62;62.31;100693.16;7367259;19;20002;-62
2022/10/09 04:21:45;;;;;;;0.10;0.10;;;;;;;14.58;62.20;100686.28;7366757;19;20465;-62
2022/10/09 04:24:10;;;;;;;0.00;0.00;;;;;;;14.40;62.65;100666.84;7362889;19;20003;-62
2022/10/09 04:26:36;;;;;;;0.00;0.00;;;;;;;14.51;62.58;100684.84;7365719;19;20755;-62
2022/10/09 04:29:01;;;;;;;0.00;0.00;;;;;;;14.45;62.87;100674.53;7365315;19;20014;-63
2022/10/09 04:31:27;;;;;;;0.00;0.00;;;;;;;14.47;62.53;100670.06;7366764;19;20018;-62
2022/10/09 04:33:55;;;;;;;0.00;0.00;;;;;;;14.42;62.42;100651.00;7362812;19;20018;-62
2022/10/09 04:36:22;;;;;;;0.00;0.00;;;;;;;14.38;62.86;100646.78;7366772;19;20028;-62
2022/10/09 04:38:47;;;;;;;0.00;0.00;;;;;;;14.45;62.68;100653.53;7367862;19;20010;-62
2022/10/09 04:41:13;;;;;;;0.00;0.00;;;;;;;14.35;62.38;100628.53;7365693;19;20461;-63
2022/10/09 04:43:38;;;;;;;0.00;0.00;;;;;;;14.44;62.50;100643.91;7366339;19;20468;-62
2022/10/09 04:46:09;;;;;;;0.00;0.00;;;;;;;14.47;62.33;100649.06;7364438;19;20027;-62
2022/10/09 04:48:40;;;;;;;0.00;0.00;;;;;;;14.48;62.29;100642.91;7366541;19;20109;-63
2022/10/09 04:51:06;;;;;;;0.00;0.00;;;;;;;14.43;62.89;100634.31;7363751;19;20021;-62
2022/10/09 04:53:32;;;;;;;0.00;0.00;;;;;;;14.35;62.18;100615.41;7367737;19;20011;-63
2022/10/09 04:56:02;;;;;;;0.00;0.00;;;;;;;14.49;61.68;100639.34;7365076;19;20370;-62
2022/10/09 04:58:29;;;;;;;0.00;0.00;;;;;;;14.48;62.40;100637.66;7365204;19;20529;-62
2022/10/09 05:00:54;;;;;;;0.00;0.00;;;;;;;14.36;62.02;100622.34;7366393;19;20346;-63
2022/10/09 05:03:19;;;;;;;0.00;0.00;;;;;;;14.41;62.01;100625.66;7364685;19;20015;-62
2022/10/09 05:05:45;;;;;;;0.03;0.03;;;;;;;14.40;61.83;100610.81;7364145;19;20144;-62
2022/10/09 05:08:10;;;;;;;0.00;0.00;;;;;;;14.38;61.76;100599.50;7363890;19;20027;-62
2022/10/09 05:10:36;;;;;;;0.00;0.00;;;;;;;14.53;61.91;100619.94;7364682;19;20538;-62
2022/10/09 05:13:01;;;;;;;0.00;0.00;;;;;;;14.48;62.15;100611.38;7363352;19;20022;-62
2022/10/09 05:15:27;;;;;;;0.03;0.03;;;;;;;14.45;61.64;100586.06;7366264;19;20023;-62
2022/10/09 05:17:52;;;;;;;0.00;0.00;;;;;;;14.47;61.29;100591.25;7363758;19;20018;-63
2022/10/09 05:20:18;;;;;;;0.00;0.00;;;;;;;14.59;61.07;100603.91;7367151;19;20015;-62
2022/10/09 05:22:44;;;;;;;0.00;0.00;;;;;;;14.53;61.19;100586.63;7363232;19;20025;-62
2022/10/09 05:25:09;;;;;;;0.00;0.00;;;;;;;14.64;60.39;100596.69;7365858;19;20738;-62
2022/10/09 05:27:35;;;;;;;0.00;0.00;;;;;;;14.66;60.67;100596.66;7363187;19;20014;-62
2022/10/09 05:30:00;;;;;;;0.00;0.00;;;;;;;14.66;60.52;100589.63;7363600;19;20006;-62
2022/10/09 05:32:25;;;;;;;0.10;0.10;;;;;;;14.62;60.53;100580.13;7363051;19;20015;-62
2022/10/09 05:34:51;;;;;;;0.08;0.08;;;;;;;14.69;60.43;100589.47;7363570;19;20011;-62
2022/10/09 05:37:16;;;;;;;0.00;0.00;;;;;;;14.70;60.35;100580.69;7361535;19;20006;-62
2022/10/09 05:39:42;;;;;;;0.00;0.00;;;;;;;14.73;60.30;100585.81;7364089;19;20011;-62
2022/10/09 05:42:07;;;;;;;0.00;0.00;;;;;;;14.76;59.44;100575.16;7366086;19;20861;-63
2022/10/09 05:44:32;;;;;;;0.00;0.00;;;;;;;14.76;59.86;100564.66;7363170;19;20025;-63
2022/10/09 05:46:58;;;;;;;0.00;0.00;;;;;;;14.66;59.90;100541.44;7362964;19;22405;-62
2022/10/09 05:49:23;;;;;;;0.00;0.00;;;;;;;14.61;59.31;100523.25;7363665;19;20023;-62
2022/10/09 05:51:49;;;;;;;0.00;0.00;;;;;;;14.70;59.13;100533.38;7365479;19;20070;-63
2022/10/09 05:54:16;;;;;;;0.00;0.00;;;;;;;14.85;59.52;100552.03;7362584;19;20040;-62
2022/10/09 05:56:43;;;;;;;;;;;;;;;14.89;59.46;100541.31;7366705;19;20533;-63
2022/10/09 05:59:12;;;;;;;0.00;0.00;;;;;;;14.88;59.25;100542.25;7355616;19;19926;-62
2022/10/09 06:01:47;;;;;;;0.00;0.00;;;;;;;14.90;58.96;100540.41;7361723;19;20082;-62
2022/10/09 06:04:16;;;;;;;0.00;0.00;;;;;;;14.85;59.34;100541.50;7362970;19;20003;-63
2022/10/09 06:06:42;;;;;;;0.00;0.00;;;;;;;14.74;59.16;100519.16;7360147;19;20022;-62
2022/10/09 06:09:09;;;;;;;0.00;0.00;;;;;;;14.87;59.81;100535.28;7363491;19;20021;-62
2022/10/09 06:11:37;;;;;;;0.03;0.03;;;;;;;14.89;59.64;100535.19;7362199;19;20006;-62
2022/10/09 06:14:05;;;;;;;0.00;0.00;;;;;;;14.89;59.53;100538.69;7360857;19;20051;-62
2022/10/09 06:16:33;;;;;;;0.00;0.00;;;;;;;14.91;59.65;100536.84;7362657;19;20015;-62
2022/10/09 06:18:59;;;;;;;0.00;0.00;;;;;;;14.91;59.51;100538.63;7361886;19;20027;-62
2022/10/09 06:21:25;;;;;;;0.10;0.10;;;;;;;14.81;59.49;100505.78;7361282;19;20095;-62
2022/10/09 06:23:52;;;;;;;0.10;0.10;;;;;;;14.93;59.61;100526.25;7360364;19;20097;-62
2022/10/09 06:26:19;;;;;;;0.00;0.00;;;;;;;14.92;59.55;100527.19;7358568;19;20014;-62
2022/10/09 06:28:45;;;;;;;0.10;0.10;;;;;;;14.93;59.05;100523.63;7363954;19;20019;-62
2022/10/09 06:31:22;;;;;;;0.00;0.00;;;;;;;14.94;59.28;100526.19;7358279;19;20561;-63
2022/10/09 06:33:50;;;;;;;0.10;0.10;;;;;;;14.95;59.12;100521.78;7362155;19;21258;-62
2022/10/09 06:36:18;;;;;;;0.10;0.10;;;;;;;14.82;58.98;100495.19;7362418;19;20022;-62
2022/10/09 06:38:44;;;;;;;0.08;0.08;;;;;;;14.85;58.99;100502.06;7353585;19;20033;-62
2022/10/09 06:41:13;;;;;;;0.00;0.00;;;;;;;14.95;58.88;100503.38;7362524;19;20038;-63
2022/10/09 06:43:39;;;;;;;0.00;0.00;;;;;;;14.92;58.71;100506.16;7355613;19;20014;-62
2022/10/09 06:46:07;;;;;;;0.08;0.08;;;;;;;14.97;58.56;100504.19;7359497;19;20042;-63
2022/10/09 06:48:34;;;;;;;0.00;0.00;;;;;;;14.80;58.27;100476.00;7368072;19;20031;-63
2022/10/09 06:51:05;;;;;;;0.00;0.00;;;;;;;14.96;58.38;100505.09;7368388;19;20760;-62
2022/10/09 06:53:34;;;;;;;0.10;0.10;;;;;;;14.97;58.63;100498.91;7368034;19;20011;-63
2022/10/09 06:55:59;;;;;;;0.00;0.00;;;;;;;14.95;57.97;100501.63;7365272;19;20614;-62
2022/10/09 06:58:25;;;;;;;0.00;0.00;;;;;;;14.81;58.31;100466.34;7368506;19;20026;-62
2022/10/09 07:01:02;;;;;;;0.00;0.00;;;;;;;14.99;57.64;100481.28;7366802;19;20029;-62
2022/10/09 07:03:27;;;;;;;0.00;0.00;;;;;;;14.94;57.55;100467.50;7368284;19;20018;-62
2022/10/09 07:05:53;;;;;;;0.08;0.08;;;;;;;15.00;57.04;100472.47;7368315;19;20025;-62
2022/10/09 07:08:19;;;;;;;0.00;0.00;;;;;;;14.98;56.85;100458.56;7367561;19;20019;-62
2022/10/09 07:10:44;;;;;;;0.08;0.08;;;;;;;14.89;57.00;100438.78;7367022;19;20423;-62
2022/10/09 07:13:10;;;;;;;0.00;0.00;;;;;;;14.97;57.16;100438.44;7368929;19;20634;-63
2022/10/09 07:15:35;;;;;;;0.00;0.00;;;;;;;14.87;56.74;100424.00;7365791;19;20069;-62
2022/10/09 07:18:02;;;;;;;0.10;0.10;;;;;;;14.98;57.11;100438.38;7369414;19;20021;-62
2022/10/09 07:20:27;;;;;;;0.10;0.10;;;;;;;14.81;57.35;100403.25;7368241;19;20011;-62
2022/10/09 07:22:53;;;;;;;0.00;0.00;;;;;;;14.97;57.19;100441.06;7368354;19;20025;-62
2022/10/09 07:25:18;;;;;;;0.00;0.00;;;;;;;14.98;57.35;100429.63;7366193;19;20027;-63
2022/10/09 07:27:43;;;;;;;0.00;0.00;;;;;;;14.97;57.48;100430.56;7365927;19;20002;-62
2022/10/09 07:30:10;;;;;;;0.00;0.00;;;;;;;14.99;57.32;100426.06;7369510;19;20002;-62
2022/10/09 07:32:35;;;;;;;0.00;0.00;;;;;;;14.99;57.32;100428.69;7365485;19;20847;-62
2022/10/09 07:35:00;;;;;;;0.03;0.03;;;;;;;14.90;57.62;100408.06;7367161;19;20011;-62
2022/10/09 07:37:26;;;;;;;0.00;0.00;;;;;;;14.97;57.98;100420.88;7364280;19;20010;-63
2022/10/09 07:39:51;;;;;;;0.00;0.00;;;;;;;14.87;57.48;100408.22;7367114;19;20679;-62
2022/10/09 07:42:17;;;;;;;0.00;0.00;;;;;;;14.87;57.81;100397.72;7367066;19;20010;-62
2022/10/09 07:44:42;;;;;;;0.00;0.00;;;;;;;14.97;58.10;100410.38;7367464;19;20465;-62
2022/10/09 07:47:07;;;;;;;0.00;0.00;;;;;;;14.92;57.64;100403.63;7367015;19;20022;-62
2022/10/09 07:49:33;;;;;;;0.10;0.10;;;;;;;14.96;57.81;100402.56;7366468;19;20074;-62
2022/10/09 07:51:58;;;;;;;0.10;0.10;;;;;;;15.00;57.73;100406.72;7365770;19;20026;-62
2022/10/09 07:54:24;;;;;;;0.00;0.00;;;;;;;15.02;57.79;100410.16;7365379;19;20002;-62
2022/10/09 07:56:49;;;;;;;0.00;0.00;;;;;;;15.01;58.17;100416.34;7368252;19;20565;-62
2022/10/09 07:59:15;;;;;;;0.00;0.00;;;;;;;15.09;57.91;100419.47;7365186;19;20167;-62
2022/10/09 08:01:41;;;;;;;0.00;0.00;;;;;;;15.12;58.12;100408.81;7365950;19;20014;-62
2022/10/09 08:04:08;;;;;;;0.00;0.00;;;;;;;15.10;58.37;100405.38;7365778;19;20036;-62
2022/10/09 08:06:33;;;;;;;0.00;0.00;;;;;;;15.34;57.93;100423.59;7367487;19;20026;-62
2022/10/09 08:09:01;;;;;;;0.00;0.00;;;;;;;15.46;58.02;100417.75;7365698;19;20011;-62
2022/10/09 08:11:28;;;;;;;0.10;0.10;;;;;;;15.54;57.54;100405.09;7365837;19;20059;-62
2022/10/09 08:13:53;;;;;;;0.10;0.10;;;;;;;15.60;57.65;100399.53;7363732;19;20778;-62
2022/10/09 08:16:20;;;;;;;0.00;0.00;;;;;;;15.66;57.60;100396.66;7364021;19;20031;-62
2022/10/09 08:18:46;;;;;;;0.00;0.00;;;;;;;15.72;57.61;100412.13;7364141;19;20002;-62
2022/10/09 08:21:15;;;;;;;0.10;0.10;;;;;;;15.78;57.10;100409.22;7362919;19;20006;-62
2022/10/09 08:23:41;;;;;;;0.00;0.00;;;;;;;15.68;57.32;100392.16;7365024;19;20059;-62
2022/10/09 08:26:15;;;;;;;0.00;0.00;;;;;;;15.88;57.80;100411.38;7364277;19;20687;-62
2022/10/09 08:28:41;;;;;;;0.00;0.00;;;;;;;15.86;57.58;100410.59;7364536;19;20006;-63
2022/10/09 08:31:15;;;;;;;0.00;0.00;;;;;;;15.87;57.69;100397.38;7366645;19;22362;-62
2022/10/09 08:33:40;;;;;;;0.05;0.05;;;;;;;15.91;57.26;100398.91;7364413;19;20509;-63
2022/10/09 08:36:08;;;;;;;0.00;0.00;;;;;;;15.90;57.09;100380.56;7364102;19;20098;-62
2022/10/09 08:38:34;;;;;;;0.10;0.10;;;;;;;15.97;56.77;100385.47;7363849;19;20002;-63
2022/10/09 08:41:08;;;;;;;0.08;0.08;;;;;;;15.98;57.01;100357.34;7362327;19;20022;-62
2022/10/09 08:43:38;;;;;;;0.00;0.00;;;;;;;16.01;56.34;100367.69;7366514;19;20011;-62
2022/10/09 08:46:13;;;;;;;0.00;0.00;;;;;;;16.01;56.34;100367.69;7359521;19;20014;-62
2022/10/09 08:48:43;;;;;;;0.00;0.00;;;;;;;15.96;56.96;100357.38;7367154;19;20027;-63
2022/10/09 08:51:19;;;;;;;0.10;0.10;;;;;;;16.02;56.79;100359.75;7364019;19;20015;-62
2022/10/09 08:54:09;;;;;;;0.05;0.05;;;;;;;16.04;56.60;100357.03;7366792;19;20007;-63
2022/10/09 08:56:36;;;;;;;0.00;0.00;;;;;;;15.94;56.57;100339.97;7364281;19;20066;-62
2022/10/09 08:59:02;;;;;;;0.10;0.10;;;;;;;15.97;56.72;100350.38;7364422;19;20375;-62
2022/10/09 09:01:46;;;;;;;0.10;0.10;;;;;;;15.99;56.77;100343.22;7362747;19;20006;-62
2022/10/09 09:04:34;;;;;;;0.05;0.05;;;;;;;15.96;56.92;100343.38;7366959;19;20731;-62
2022/10/09 09:07:24;;;;;;;0.00;0.00;;;;;;;15.99;56.79;100337.97;7364796;19;20041;-62
2022/10/09 09:10:15;;;;;;;0.00;0.00;;;;;;;15.92;57.14;100320.78;7359055;19;20043;-62
2022/10/09 09:13:02;;;;;;;0.00;0.00;;;;;;;15.92;57.39;100326.91;7263355;19;2004342;-62
2022/10/09 09:15:43;;;;;;;0.10;0.10;;;;;;;15.96;57.48;100328.41;7362622;19;20739;-62
2022/10/09 09:18:08;;;;;;;0.00;0.00;;;;;;;15.94;57.82;100311.00;7364186;19;21191;-62
2022/10/09 09:20:54;;;;;;;0.00;0.00;;;;;;;15.97;57.39;100314.34;7364035;19;21451;-62
2022/10/09 09:23:31;;;;;;;0.00;0.00;;;;;;;15.94;57.56;100309.22;7365707;19;20335;-62
2022/10/09 09:25:58;;;;;;;0.10;0.10;;;;;;;15.85;57.90;100301.78;7359101;19;20105;-62
2022/10/09 09:28:28;;;;;;;0.00;0.00;;;;;;;15.91;57.91;100309.38;7357913;19;20756;-63
2022/10/09 09:31:01;;;;;;;0.10;0.10;;;;;;;15.99;57.74;100312.47;7363422;19;20189;-63
2022/10/09 09:34:01;;;;;;;0.00;0.00;;;;;;;16.04;57.56;100320.16;7361987;19;20003;-62
2022/10/09 09:36:32;;;;;;;0.00;0.00;;;;;;;16.05;58.66;100306.03;7261028;19;2004192;-62
2022/10/09 09:38:57;;;;;;;0.10;0.10;;;;;;;16.04;58.62;100304.34;7362746;19;20006;-62
2022/10/09 09:41:23;;;;;;;0.00;0.00;;;;;;;15.93;58.46;100280.34;7361075;19;20156;-62
2022/10/09 09:43:49;;;;;;;0.10;0.10;;;;;;;16.09;58.50;100302.31;7362015;19;20365;-62
2022/10/09 09:46:19;;;;;;;0.00;0.00;;;;;;;16.13;58.75;100301.25;7364238;19;20486;-62
2022/10/09 09:48:47;;;;;;;0.00;0.00;;;;;;;16.15;58.44;100304.63;7365690;19;20037;-62
2022/10/09 09:51:19;;;;;;;0.10;0.10;;;;;;;16.19;58.89;100294.78;7362903;19;20082;-63
2022/10/09 09:53:51;;;;;;;0.00;0.00;;;;;;;16.20;59.06;100294.72;7362073;19;20009;-62
2022/10/09 09:56:17;;;;;;;0.00;0.00;;;;;;;16.21;58.91;100285.88;7364799;19;20006;-62
2022/10/09 09:58:49;;;;;;;0.00;0.00;;;;;;;16.27;59.32;100277.66;7360747;19;20027;-62
2022/10/09 10:01:27;;;;;;;0.00;0.00;;;;;;;16.33;58.81;100263.31;7361167;19;20034;-62
2022/10/09 10:03:55;;;;;;;0.00;0.00;;;;;;;16.33;59.40;100265.94;7361704;19;20099;-62
2022/10/09 10:06:28;;;;;;;0.00;0.00;;;;;;;16.38;59.21;100255.16;7360843;19;20418;-62
2022/10/09 10:09:18;;;;;;;0.10;0.10;;;;;;;16.47;58.87;100239.66;7362889;19;20010;-62
2022/10/09 10:11:47;;;;;;;0.00;0.00;;;;;;;16.49;59.72;100248.38;7359245;19;20022;-62
2022/10/09 10:14:15;;;;;;;0.00;0.00;;;;;;;16.48;59.98;100240.53;7358908;19;20011;-62
2022/10/09 10:16:42;;;;;;;0.00;0.00;;;;;;;16.42;59.38;100225.03;7362518;19;20030;-62
2022/10/09 10:19:19;;;;;;;0.10;0.10;;;;;;;16.56;59.38;100230.41;7361182;19;20037;-62
2022/10/09 10:22:08;;;;;;;0.08;0.08;;;;;;;16.56;59.75;100233.91;7364102;19;20849;-63
2022/10/09 10:24:41;;;;;;;0.10;0.10;;;;;;;16.58;60.13;100231.19;7367233;19;20014;-62
2022/10/09 10:27:28;;;;;;;0.00;0.00;;;;;;;16.64;59.45;100215.03;7368278;19;20018;-62
2022/10/09 10:30:01;;;;;;;0.10;0.10;;;;;;;16.66;60.22;100210.53;7366944;19;20014;-63
2022/10/09 10:32:37;;;;;;;0.10;0.10;;;;;;;16.73;60.30;100211.94;7367814;19;20021;-62
2022/10/09 10:35:10;;;;;;;0.08;0.08;;;;;;;16.75;60.01;100190.75;7366955;19;20014;-63
2022/10/09 10:37:59;;;;;;;0.00;0.00;;;;;;;16.87;60.45;100190.03;7368470;19;20011;-62
2022/10/09 10:40:31;;;;;;;0.00;0.00;;;;;;;16.93;60.37;100196.75;7364243;19;20040;-62
2022/10/09 10:43:27;;;;;;;0.00;0.00;;;;;;;17.00;59.75;100196.31;7365631;19;20014;-62
2022/10/09 10:46:09;;;;;;;0.10;0.10;;;;;;;17.03;60.04;100176.81;7262779;19;2006028;-61
2022/10/09 10:48:46;;;;;;;0.00;0.00;;;;;;;17.12;59.78;100189.47;7366990;19;20022;-62
2022/10/09 10:51:38;;;;;;;0.10;0.10;;;;;;;17.19;59.70;100185.56;7366057;19;20754;-62
2022/10/09 10:54:26;;;;;;;0.00;0.00;;;;;;;17.23;59.65;100179.13;7267743;19;2004610;-62
2022/10/09 10:56:54;;;;;;;0.00;0.00;;;;;;;17.28;59.89;100155.97;7367603;19;20018;-62
2022/10/09 10:59:26;;;;;;;0.00;0.00;;;;;;;17.30;59.60;100159.38;7366977;19;20011;-62
2022/10/09 11:02:10;;;;;;;0.10;0.10;;;;;;;17.37;59.40;100151.94;7365588;19;20010;-62
2022/10/09 11:05:13;;;;;;;0.00;0.00;;;;;;;17.43;59.96;100151.56;7365969;19;20007;-63
2022/10/09 11:07:59;;;;;;;0.10;0.10;;;;;;;17.51;60.24;100128.22;7262342;19;2004216;-62
2022/10/09 11:10:39;;;;;;;0.00;0.00;;;;;;;17.51;61.17;100116.81;7366296;19;20052;-62
2022/10/09 11:13:14;;;;;;;0.10;0.10;;;;;;;17.47;61.33;100110.84;7366955;19;20010;-62
2022/10/09 11:15:57;;;;;;;0.00;0.00;;;;;;;17.52;60.59;100115.84;7367866;19;20029;-62
2022/10/09 11:19:14;;;;;;;0.00;0.00;;;;;;;17.53;60.07;100104.34;7367126;19;20017;-62
2022/10/09 11:21:49;;;;;;;0.00;0.00;;;;;;;17.45;60.88;100102.19;7263177;19;2004205;-62
2022/10/09 11:24:32;;;;;;;0.03;0.03;;;;;;;17.51;60.42;100087.78;7365436;19;20013;-62
2022/10/09 11:27:09;;;;;;;0.10;0.10;;;;;;;17.53;60.36;100077.94;7365332;19;20029;-62
2022/10/09 11:29:46;;;;;;;0.10;0.10;;;;;;;17.52;60.74;100081.53;7365486;19;21077;-62
2022/10/09 11:32:21;;;;;;;0.00;0.00;;;;;;;17.62;60.49;100085.31;7366000;19;20998;-62
2022/10/09 11:35:11;;;;;;;0.00;0.00;;;;;;;17.67;60.19;100093.78;7367135;19;20010;-62
2022/10/09 11:37:39;;;;;;;0.00;0.00;;;;;;;17.60;62.82;100074.00;7365033;19;20465;-62